sensor_id;sensor_type;location;lat;lon;timestamp;P1;durP1;ratioP1;P2;durP2;ratioP2
703;SDS011;335;48.694;9.120;2023-01-10T00:00:47;0.57;;;0.57;;
703;SDS011;335;48.694;9.120;2023-01-10T00:03:12;0.67;;;0.47;;
703;SDS011;335;48.694;9.120;2023-01-10T00:05:38;0.73;;;0.70;;
703;SDS011;335;48.694;9.120;2023-01-10T00:08:05;0.50;;;0.40;;
703;SDS011;335;48.694;9.120;2023-01-10T00:10:31;0.50;;;0.50;;
703;SDS011;335;48.694;9.120;2023-01-10T00:12:57;0.80;;;0.32;;
703;SDS011;335;48.694;9.120;2023-01-10T00:15:41;0.60;;;0.60;;
703;SDS011;335;48.694;9.120;2023-01-10T00:18:06;2.50;;;0.83;;
703;SDS011;335;48.694;9.120;2023-01-10T00:20:32;0.70;;;0.53;;
703;SDS011;335;48.694;9.120;2023-01-10T00:22:57;0.60;;;0.60;;
703;SDS011;335;48.694;9.120;2023-01-10T00:25:23;0.50;;;0.50;;
703;SDS011;335;48.694;9.120;2023-01-10T00:27:49;0.70;;;0.70;;
703;SDS011;335;48.694;9.120;2023-01-10T00:30:22;1.20;;;0.55;;
703;SDS011;335;48.694;9.120;2023-01-10T00:32:47;0.70;;;0.70;;
703;SDS011;335;48.694;9.120;2023-01-10T00:35:12;0.60;;;0.60;;
703;SDS011;335;48.694;9.120;2023-01-10T00:37:38;1.10;;;0.90;;
703;SDS011;335;48.694;9.120;2023-01-10T00:40:05;1.67;;;0.80;;
703;SDS011;335;48.694;9.120;2023-01-10T00:42:36;0.95;;;0.82;;
703;SDS011;335;48.694;9.120;2023-01-10T00:45:21;0.65;;;0.55;;
703;SDS011;335;48.694;9.120;2023-01-10T00:47:48;0.70;;;0.70;;
703;SDS011;335;48.694;9.120;2023-01-10T00:50:14;0.70;;;0.60;;
703;SDS011;335;48.694;9.120;2023-01-10T00:52:40;1.23;;;0.77;;
703;SDS011;335;48.694;9.120;2023-01-10T00:55:05;1.10;;;1.10;;
703;SDS011;335;48.694;9.120;2023-01-10T00:57:31;0.90;;;0.70;;
703;SDS011;335;48.694;9.120;2023-01-10T00:59:57;1.63;;;1.53;;
703;SDS011;335;48.694;9.120;2023-01-10T01:02:22;1.30;;;1.20;;
703;SDS011;335;48.694;9.120;2023-01-10T01:04:47;0.93;;;0.93;;
703;SDS011;335;48.694;9.120;2023-01-10T01:07:13;1.07;;;0.90;;
703;SDS011;335;48.694;9.120;2023-01-10T01:09:38;0.70;;;0.70;;
703;SDS011;335;48.694;9.120;2023-01-10T01:12:23;1.20;;;0.95;;
703;SDS011;335;48.694;9.120;2023-01-10T01:14:48;1.73;;;1.63;;
703;SDS011;335;48.694;9.120;2023-01-10T01:17:14;1.33;;;1.00;;
703;SDS011;335;48.694;9.120;2023-01-10T01:19:39;1.90;;;1.13;;
703;SDS011;335;48.694;9.120;2023-01-10T01:22:05;2.93;;;1.30;;
703;SDS011;335;48.694;9.120;2023-01-10T01:24:30;1.10;;;1.10;;
703;SDS011;335;48.694;9.120;2023-01-10T01:26:55;1.40;;;1.30;;
703;SDS011;335;48.694;9.120;2023-01-10T01:29:20;1.03;;;1.03;;
703;SDS011;335;48.694;9.120;2023-01-10T01:31:46;1.00;;;1.00;;
703;SDS011;335;48.694;9.120;2023-01-10T01:34:11;1.03;;;1.03;;
703;SDS011;335;48.694;9.120;2023-01-10T01:36:36;1.40;;;1.10;;
703;SDS011;335;48.694;9.120;2023-01-10T01:39:02;1.10;;;1.07;;
703;SDS011;335;48.694;9.120;2023-01-10T01:41:28;1.00;;;1.00;;
703;SDS011;335;48.694;9.120;2023-01-10T01:44:15;1.60;;;1.20;;
703;SDS011;335;48.694;9.120;2023-01-10T01:46:43;1.00;;;1.00;;
703;SDS011;335;48.694;9.120;2023-01-10T01:49:12;1.30;;;1.20;;
703;SDS011;335;48.694;9.120;2023-01-10T01:51:40;1.25;;;1.25;;
703;SDS011;335;48.694;9.120;2023-01-10T01:54:09;1.92;;;1.40;;
703;SDS011;335;48.694;9.120;2023-01-10T01:56:41;1.17;;;1.17;;
703;SDS011;335;48.694;9.120;2023-01-10T01:59:13;1.50;;;1.30;;
703;SDS011;335;48.694;9.120;2023-01-10T02:01:41;3.30;;;1.30;;
703;SDS011;335;48.694;9.120;2023-01-10T02:04:18;0.93;;;0.93;;
703;SDS011;335;48.694;9.120;2023-01-10T02:06:45;0.52;;;0.52;;
703;SDS011;335;48.694;9.120;2023-01-10T02:11:49;1.02;;;0.93;;
703;SDS011;335;48.694;9.120;2023-01-10T02:14:15;0.90;;;0.80;;
703;SDS011;335;48.694;9.120;2023-01-10T02:16:41;0.90;;;0.90;;
703;SDS011;335;48.694;9.120;2023-01-10T02:19:09;1.07;;;0.97;;
703;SDS011;335;48.694;9.120;2023-01-10T02:32:54;0.70;;;0.70;;
703;SDS011;335;48.694;9.120;2023-01-10T02:38:16;3.22;;;0.63;;
703;SDS011;335;48.694;9.120;2023-01-10T02:44:05;1.58;;;1.00;;
703;SDS011;335;48.694;9.120;2023-01-10T02:46:33;0.82;;;0.80;;
703;SDS011;335;48.694;9.120;2023-01-10T02:49:00;0.95;;;0.93;;
703;SDS011;335;48.694;9.120;2023-01-10T02:51:29;2.40;;;0.80;;
703;SDS011;335;48.694;9.120;2023-01-10T02:54:01;0.50;;;0.50;;
703;SDS011;335;48.694;9.120;2023-01-10T03:02:40;0.73;;;0.73;;
703;SDS011;335;48.694;9.120;2023-01-10T03:08:18;2.78;;;1.10;;
703;SDS011;335;48.694;9.120;2023-01-10T03:13:25;1.52;;;1.13;;
703;SDS011;335;48.694;9.120;2023-01-10T03:15:53;1.58;;;1.40;;
703;SDS011;335;48.694;9.120;2023-01-10T03:18:26;2.90;;;1.27;;
703;SDS011;335;48.694;9.120;2023-01-10T03:20:57;2.28;;;1.80;;
703;SDS011;335;48.694;9.120;2023-01-10T03:23:23;4.53;;;1.53;;
703;SDS011;335;48.694;9.120;2023-01-10T03:25:49;3.83;;;1.83;;
703;SDS011;335;48.694;9.120;2023-01-10T03:28:16;2.87;;;2.43;;
703;SDS011;335;48.694;9.120;2023-01-10T03:30:45;2.50;;;2.30;;
703;SDS011;335;48.694;9.120;2023-01-10T03:33:15;2.47;;;2.17;;
703;SDS011;335;48.694;9.120;2023-01-10T03:38:47;2.88;;;2.60;;
703;SDS011;335;48.694;9.120;2023-01-10T03:43:53;2.40;;;1.80;;
703;SDS011;335;48.694;9.120;2023-01-10T03:46:52;4.10;;;3.13;;
703;SDS011;335;48.694;9.120;2023-01-10T03:52:09;2.28;;;1.70;;
703;SDS011;335;48.694;9.120;2023-01-10T03:54:36;2.53;;;2.28;;
703;SDS011;335;48.694;9.120;2023-01-10T03:57:02;2.23;;;1.50;;
703;SDS011;335;48.694;9.120;2023-01-10T03:59:27;2.03;;;1.23;;
703;SDS011;335;48.694;9.120;2023-01-10T04:01:53;1.30;;;1.20;;
703;SDS011;335;48.694;9.120;2023-01-10T04:04:19;1.40;;;1.30;;
703;SDS011;335;48.694;9.120;2023-01-10T04:06:45;4.18;;;1.23;;
703;SDS011;335;48.694;9.120;2023-01-10T04:09:10;1.30;;;1.20;;
703;SDS011;335;48.694;9.120;2023-01-10T04:11:35;3.47;;;1.17;;
703;SDS011;335;48.694;9.120;2023-01-10T04:14:01;1.50;;;1.40;;
703;SDS011;335;48.694;9.120;2023-01-10T04:16:26;1.20;;;1.07;;
703;SDS011;335;48.694;9.120;2023-01-10T04:18:52;1.33;;;1.30;;
703;SDS011;335;48.694;9.120;2023-01-10T04:21:17;1.60;;;1.13;;
703;SDS011;335;48.694;9.120;2023-01-10T04:23:42;2.87;;;1.50;;
703;SDS011;335;48.694;9.120;2023-01-10T04:26:08;2.27;;;1.40;;
703;SDS011;335;48.694;9.120;2023-01-10T04:28:33;1.90;;;1.10;;
703;SDS011;335;48.694;9.120;2023-01-10T04:30:58;2.70;;;1.40;;
703;SDS011;335;48.694;9.120;2023-01-10T04:33:24;1.67;;;1.40;;
703;SDS011;335;48.694;9.120;2023-01-10T04:35:50;1.77;;;1.30;;
703;SDS011;335;48.694;9.120;2023-01-10T04:38:16;3.55;;;1.33;;
703;SDS011;335;48.694;9.120;2023-01-10T04:40:42;1.70;;;1.60;;
703;SDS011;335;48.694;9.120;2023-01-10T04:43:07;1.30;;;1.03;;
703;SDS011;335;48.694;9.120;2023-01-10T04:45:33;2.03;;;1.00;;
703;SDS011;335;48.694;9.120;2023-01-10T04:47:58;1.70;;;0.70;;
703;SDS011;335;48.694;9.120;2023-01-10T04:50:24;1.17;;;0.87;;
703;SDS011;335;48.694;9.120;2023-01-10T04:52:50;0.90;;;0.90;;
703;SDS011;335;48.694;9.120;2023-01-10T04:55:16;1.45;;;0.77;;
703;SDS011;335;48.694;9.120;2023-01-10T04:57:41;1.00;;;0.60;;
703;SDS011;335;48.694;9.120;2023-01-10T05:00:07;1.60;;;1.30;;
703;SDS011;335;48.694;9.120;2023-01-10T05:02:33;1.20;;;1.10;;
703;SDS011;335;48.694;9.120;2023-01-10T05:04:58;2.53;;;1.00;;
703;SDS011;335;48.694;9.120;2023-01-10T05:07:24;2.50;;;1.20;;
703;SDS011;335;48.694;9.120;2023-01-10T05:09:49;2.20;;;1.23;;
703;SDS011;335;48.694;9.120;2023-01-10T05:12:14;1.80;;;0.97;;
703;SDS011;335;48.694;9.120;2023-01-10T05:14:40;3.10;;;0.87;;
703;SDS011;335;48.694;9.120;2023-01-10T05:17:05;4.10;;;1.20;;
703;SDS011;335;48.694;9.120;2023-01-10T05:19:30;2.20;;;1.00;;
703;SDS011;335;48.694;9.120;2023-01-10T05:21:56;2.00;;;1.13;;
703;SDS011;335;48.694;9.120;2023-01-10T05:24:21;1.47;;;1.10;;
703;SDS011;335;48.694;9.120;2023-01-10T05:26:46;3.33;;;1.20;;
703;SDS011;335;48.694;9.120;2023-01-10T05:29:12;2.07;;;1.57;;
703;SDS011;335;48.694;9.120;2023-01-10T05:31:38;1.88;;;1.13;;
703;SDS011;335;48.694;9.120;2023-01-10T05:34:04;3.57;;;1.57;;
703;SDS011;335;48.694;9.120;2023-01-10T05:36:29;3.70;;;1.40;;
703;SDS011;335;48.694;9.120;2023-01-10T05:38:55;2.00;;;1.80;;
703;SDS011;335;48.694;9.120;2023-01-10T05:41:20;5.13;;;1.73;;
703;SDS011;335;48.694;9.120;2023-01-10T05:43:45;4.17;;;1.97;;
703;SDS011;335;48.694;9.120;2023-01-10T05:46:11;7.60;;;1.70;;
703;SDS011;335;48.694;9.120;2023-01-10T05:48:36;3.20;;;1.70;;
703;SDS011;335;48.694;9.120;2023-01-10T05:51:02;5.40;;;3.03;;
703;SDS011;335;48.694;9.120;2023-01-10T05:53:27;3.80;;;1.70;;
703;SDS011;335;48.694;9.120;2023-01-10T05:55:53;5.63;;;4.00;;
703;SDS011;335;48.694;9.120;2023-01-10T05:58:26;4.80;;;1.80;;
703;SDS011;335;48.694;9.120;2023-01-10T06:00:52;4.47;;;2.35;;
703;SDS011;335;48.694;9.120;2023-01-10T06:03:19;3.95;;;3.10;;
703;SDS011;335;48.694;9.120;2023-01-10T06:05:44;2.53;;;2.10;;
703;SDS011;335;48.694;9.120;2023-01-10T06:08:10;9.07;;;2.60;;
703;SDS011;335;48.694;9.120;2023-01-10T06:10:35;11.30;;;3.17;;
703;SDS011;335;48.694;9.120;2023-01-10T06:13:00;5.93;;;2.93;;
703;SDS011;335;48.694;9.120;2023-01-10T06:15:26;14.23;;;2.87;;
703;SDS011;335;48.694;9.120;2023-01-10T06:17:52;4.68;;;2.05;;
703;SDS011;335;48.694;9.120;2023-01-10T06:20:17;5.00;;;2.13;;
703;SDS011;335;48.694;9.120;2023-01-10T06:22:43;4.20;;;2.30;;
703;SDS011;335;48.694;9.120;2023-01-10T06:25:11;2.10;;;1.90;;
703;SDS011;335;48.694;9.120;2023-01-10T06:27:41;10.43;;;2.83;;
703;SDS011;335;48.694;9.120;2023-01-10T06:30:07;6.00;;;1.80;;
703;SDS011;335;48.694;9.120;2023-01-10T06:32:34;5.07;;;2.30;;
703;SDS011;335;48.694;9.120;2023-01-10T06:34:59;4.53;;;1.97;;
703;SDS011;335;48.694;9.120;2023-01-10T06:37:25;6.13;;;2.40;;
703;SDS011;335;48.694;9.120;2023-01-10T06:39:50;5.00;;;2.27;;
703;SDS011;335;48.694;9.120;2023-01-10T06:42:16;4.90;;;2.13;;
703;SDS011;335;48.694;9.120;2023-01-10T06:44:41;7.27;;;2.27;;
703;SDS011;335;48.694;9.120;2023-01-10T06:47:06;5.77;;;2.00;;
703;SDS011;335;48.694;9.120;2023-01-10T06:49:32;4.13;;;1.90;;
703;SDS011;335;48.694;9.120;2023-01-10T06:51:57;10.17;;;2.07;;
703;SDS011;335;48.694;9.120;2023-01-10T06:54:22;9.63;;;2.20;;
703;SDS011;335;48.694;9.120;2023-01-10T06:56:48;4.30;;;1.97;;
703;SDS011;335;48.694;9.120;2023-01-10T06:59:13;4.90;;;1.77;;
703;SDS011;335;48.694;9.120;2023-01-10T07:01:38;5.40;;;1.73;;
703;SDS011;335;48.694;9.120;2023-01-10T07:04:04;6.93;;;1.80;;
703;SDS011;335;48.694;9.120;2023-01-10T07:06:29;4.87;;;1.60;;
703;SDS011;335;48.694;9.120;2023-01-10T07:08:55;5.57;;;1.90;;
703;SDS011;335;48.694;9.120;2023-01-10T07:11:20;3.27;;;1.47;;
703;SDS011;335;48.694;9.120;2023-01-10T07:13:46;4.00;;;1.87;;
703;SDS011;335;48.694;9.120;2023-01-10T07:16:13;5.57;;;2.00;;
703;SDS011;335;48.694;9.120;2023-01-10T07:18:40;4.82;;;2.10;;
703;SDS011;335;48.694;9.120;2023-01-10T07:21:06;6.00;;;1.63;;
703;SDS011;335;48.694;9.120;2023-01-10T07:23:32;6.40;;;2.00;;
703;SDS011;335;48.694;9.120;2023-01-10T07:26:01;4.10;;;1.67;;
703;SDS011;335;48.694;9.120;2023-01-10T07:28:28;5.68;;;2.00;;
703;SDS011;335;48.694;9.120;2023-01-10T07:30:54;5.50;;;2.00;;
703;SDS011;335;48.694;9.120;2023-01-10T07:33:23;3.33;;;2.00;;
703;SDS011;335;48.694;9.120;2023-01-10T07:35:48;2.03;;;1.70;;
703;SDS011;335;48.694;9.120;2023-01-10T07:38:13;3.93;;;1.73;;
703;SDS011;335;48.694;9.120;2023-01-10T07:40:39;6.30;;;1.87;;
703;SDS011;335;48.694;9.120;2023-01-10T07:43:04;4.60;;;1.70;;
703;SDS011;335;48.694;9.120;2023-01-10T07:45:29;9.70;;;5.73;;
703;SDS011;335;48.694;9.120;2023-01-10T07:47:59;10.00;;;5.40;;
703;SDS011;335;48.694;9.120;2023-01-10T07:50:27;9.35;;;6.22;;
703;SDS011;335;48.694;9.120;2023-01-10T07:52:53;9.00;;;6.78;;
703;SDS011;335;48.694;9.120;2023-01-10T07:55:19;15.30;;;12.53;;
703;SDS011;335;48.694;9.120;2023-01-10T07:57:44;5.90;;;4.20;;
703;SDS011;335;48.694;9.120;2023-01-10T08:00:10;3.23;;;2.83;;
703;SDS011;335;48.694;9.120;2023-01-10T08:02:36;5.03;;;2.00;;
703;SDS011;335;48.694;9.120;2023-01-10T08:05:01;2.60;;;1.93;;
703;SDS011;335;48.694;9.120;2023-01-10T08:07:30;3.87;;;2.10;;
703;SDS011;335;48.694;9.120;2023-01-10T08:09:55;4.15;;;2.50;;
703;SDS011;335;48.694;9.120;2023-01-10T08:12:21;5.33;;;1.90;;
703;SDS011;335;48.694;9.120;2023-01-10T08:14:48;3.65;;;2.22;;
703;SDS011;335;48.694;9.120;2023-01-10T08:17:14;6.03;;;2.10;;
703;SDS011;335;48.694;9.120;2023-01-10T08:19:39;6.00;;;2.20;;
703;SDS011;335;48.694;9.120;2023-01-10T08:22:04;4.27;;;1.70;;
703;SDS011;335;48.694;9.120;2023-01-10T08:24:30;3.90;;;2.30;;
703;SDS011;335;48.694;9.120;2023-01-10T08:26:58;6.00;;;3.00;;
703;SDS011;335;48.694;9.120;2023-01-10T08:29:24;5.82;;;2.25;;
703;SDS011;335;48.694;9.120;2023-01-10T08:31:49;3.17;;;1.70;;
703;SDS011;335;48.694;9.120;2023-01-10T08:34:15;2.53;;;1.63;;
703;SDS011;335;48.694;9.120;2023-01-10T08:36:40;7.97;;;2.40;;
703;SDS011;335;48.694;9.120;2023-01-10T08:39:05;3.23;;;1.33;;
703;SDS011;335;48.694;9.120;2023-01-10T08:41:31;2.73;;;2.53;;
703;SDS011;335;48.694;9.120;2023-01-10T08:43:56;9.37;;;2.20;;
703;SDS011;335;48.694;9.120;2023-01-10T08:46:21;3.20;;;1.90;;
703;SDS011;335;48.694;9.120;2023-01-10T08:48:46;4.57;;;1.77;;
703;SDS011;335;48.694;9.120;2023-01-10T08:51:14;5.57;;;3.22;;
703;SDS011;335;48.694;9.120;2023-01-10T08:53:39;4.87;;;2.40;;
703;SDS011;335;48.694;9.120;2023-01-10T08:56:05;4.70;;;2.50;;
703;SDS011;335;48.694;9.120;2023-01-10T08:58:31;5.53;;;2.10;;
703;SDS011;335;48.694;9.120;2023-01-10T09:00:56;4.03;;;2.13;;
703;SDS011;335;48.694;9.120;2023-01-10T09:03:21;9.70;;;2.47;;
703;SDS011;335;48.694;9.120;2023-01-10T09:05:47;3.60;;;1.80;;
703;SDS011;335;48.694;9.120;2023-01-10T09:08:12;6.50;;;2.40;;
703;SDS011;335;48.694;9.120;2023-01-10T09:10:38;4.70;;;2.33;;
703;SDS011;335;48.694;9.120;2023-01-10T09:13:03;6.30;;;2.30;;
703;SDS011;335;48.694;9.120;2023-01-10T09:15:33;6.40;;;2.55;;
703;SDS011;335;48.694;9.120;2023-01-10T09:18:01;9.93;;;2.40;;
703;SDS011;335;48.694;9.120;2023-01-10T09:20:28;7.53;;;2.40;;
703;SDS011;335;48.694;9.120;2023-01-10T09:22:54;5.07;;;3.30;;
703;SDS011;335;48.694;9.120;2023-01-10T09:25:20;5.05;;;2.60;;
703;SDS011;335;48.694;9.120;2023-01-10T09:27:46;6.70;;;1.87;;
703;SDS011;335;48.694;9.120;2023-01-10T09:30:11;4.93;;;2.63;;
703;SDS011;335;48.694;9.120;2023-01-10T09:32:37;4.10;;;2.60;;
703;SDS011;335;48.694;9.120;2023-01-10T09:35:03;3.33;;;2.57;;
703;SDS011;335;48.694;9.120;2023-01-10T09:37:28;4.10;;;2.27;;
703;SDS011;335;48.694;9.120;2023-01-10T09:39:53;5.63;;;2.77;;
703;SDS011;335;48.694;9.120;2023-01-10T09:45:08;4.97;;;1.90;;
703;SDS011;335;48.694;9.120;2023-01-10T09:47:52;4.60;;;2.50;;
703;SDS011;335;48.694;9.120;2023-01-10T09:50:30;4.80;;;2.50;;
703;SDS011;335;48.694;9.120;2023-01-10T09:53:12;4.38;;;2.25;;
703;SDS011;335;48.694;9.120;2023-01-10T09:55:41;6.10;;;2.40;;
703;SDS011;335;48.694;9.120;2023-01-10T09:58:09;6.13;;;2.23;;
703;SDS011;335;48.694;9.120;2023-01-10T10:06:10;3.30;;;1.63;;
703;SDS011;335;48.694;9.120;2023-01-10T10:08:37;3.63;;;2.20;;
703;SDS011;335;48.694;9.120;2023-01-10T10:16:13;4.30;;;1.80;;
703;SDS011;335;48.694;9.120;2023-01-10T10:24:15;4.45;;;1.30;;
703;SDS011;335;48.694;9.120;2023-01-10T10:26:54;3.58;;;1.40;;
703;SDS011;335;48.694;9.120;2023-01-10T10:29:33;13.30;;;2.13;;
703;SDS011;335;48.694;9.120;2023-01-10T10:35:15;2.80;;;1.70;;
703;SDS011;335;48.694;9.120;2023-01-10T10:37:50;3.33;;;1.45;;
703;SDS011;335;48.694;9.120;2023-01-10T10:40:23;3.10;;;2.08;;
703;SDS011;335;48.694;9.120;2023-01-10T10:42:51;5.35;;;1.75;;
703;SDS011;335;48.694;9.120;2023-01-10T10:45:22;4.05;;;1.42;;
703;SDS011;335;48.694;9.120;2023-01-10T10:48:12;3.03;;;1.58;;
703;SDS011;335;48.694;9.120;2023-01-10T10:53:26;3.42;;;1.40;;
703;SDS011;335;48.694;9.120;2023-01-10T10:55:52;2.95;;;1.88;;
703;SDS011;335;48.694;9.120;2023-01-10T10:58:17;3.73;;;1.70;;
703;SDS011;335;48.694;9.120;2023-01-10T11:00:43;4.50;;;1.53;;
703;SDS011;335;48.694;9.120;2023-01-10T11:03:19;4.93;;;1.93;;
703;SDS011;335;48.694;9.120;2023-01-10T11:05:47;2.00;;;1.20;;
703;SDS011;335;48.694;9.120;2023-01-10T11:08:13;3.13;;;1.53;;
703;SDS011;335;48.694;9.120;2023-01-10T11:10:45;1.20;;;1.10;;
703;SDS011;335;48.694;9.120;2023-01-10T11:15:56;4.50;;;1.60;;
703;SDS011;335;48.694;9.120;2023-01-10T11:18:27;4.33;;;1.40;;
703;SDS011;335;48.694;9.120;2023-01-10T11:20:55;2.60;;;1.75;;
703;SDS011;335;48.694;9.120;2023-01-10T11:26:21;1.83;;;1.73;;
703;SDS011;335;48.694;9.120;2023-01-10T11:28:47;4.45;;;1.70;;
703;SDS011;335;48.694;9.120;2023-01-10T11:31:16;3.03;;;1.77;;
703;SDS011;335;48.694;9.120;2023-01-10T11:33:52;6.22;;;2.80;;
703;SDS011;335;48.694;9.120;2023-01-10T11:36:17;6.57;;;2.33;;
703;SDS011;335;48.694;9.120;2023-01-10T11:38:44;3.30;;;1.70;;
703;SDS011;335;48.694;9.120;2023-01-10T11:41:25;3.83;;;1.80;;
703;SDS011;335;48.694;9.120;2023-01-10T11:43:59;4.63;;;2.97;;
703;SDS011;335;48.694;9.120;2023-01-10T11:46:41;4.80;;;2.40;;
703;SDS011;335;48.694;9.120;2023-01-10T11:49:11;9.23;;;4.60;;
703;SDS011;335;48.694;9.120;2023-01-10T11:51:47;3.90;;;1.80;;
703;SDS011;335;48.694;9.120;2023-01-10T11:54:16;5.07;;;1.90;;
703;SDS011;335;48.694;9.120;2023-01-10T11:56:53;10.47;;;3.00;;
703;SDS011;335;48.694;9.120;2023-01-10T11:59:20;9.10;;;4.00;;
703;SDS011;335;48.694;9.120;2023-01-10T12:01:47;6.47;;;3.20;;
703;SDS011;335;48.694;9.120;2023-01-10T12:04:38;7.07;;;3.97;;
703;SDS011;335;48.694;9.120;2023-01-10T12:07:07;9.57;;;6.00;;
703;SDS011;335;48.694;9.120;2023-01-10T12:12:19;4.60;;;1.70;;
703;SDS011;335;48.694;9.120;2023-01-10T12:14:46;7.30;;;1.93;;
703;SDS011;335;48.694;9.120;2023-01-10T12:17:15;5.37;;;2.10;;
703;SDS011;335;48.694;9.120;2023-01-10T12:19:43;4.27;;;1.27;;
703;SDS011;335;48.694;9.120;2023-01-10T12:22:09;4.93;;;1.70;;
703;SDS011;335;48.694;9.120;2023-01-10T12:24:37;2.60;;;1.53;;
703;SDS011;335;48.694;9.120;2023-01-10T12:27:05;2.17;;;1.53;;
703;SDS011;335;48.694;9.120;2023-01-10T12:29:36;4.03;;;1.40;;
703;SDS011;335;48.694;9.120;2023-01-10T12:32:11;6.50;;;2.10;;
703;SDS011;335;48.694;9.120;2023-01-10T12:34:50;2.40;;;1.53;;
703;SDS011;335;48.694;9.120;2023-01-10T12:37:24;4.00;;;1.80;;
703;SDS011;335;48.694;9.120;2023-01-10T12:40:08;3.43;;;1.87;;
703;SDS011;335;48.694;9.120;2023-01-10T12:42:53;4.77;;;1.90;;
703;SDS011;335;48.694;9.120;2023-01-10T12:45:41;3.90;;;1.63;;
703;SDS011;335;48.694;9.120;2023-01-10T12:48:25;4.20;;;2.10;;
703;SDS011;335;48.694;9.120;2023-01-10T12:50:59;4.57;;;1.80;;
703;SDS011;335;48.694;9.120;2023-01-10T12:55:55;6.50;;;2.00;;
703;SDS011;335;48.694;9.120;2023-01-10T13:01:28;7.50;;;1.90;;
703;SDS011;335;48.694;9.120;2023-01-10T13:04:00;2.97;;;1.57;;
703;SDS011;335;48.694;9.120;2023-01-10T13:06:32;4.00;;;1.70;;
703;SDS011;335;48.694;9.120;2023-01-10T13:08:58;5.30;;;1.80;;
703;SDS011;335;48.694;9.120;2023-01-10T13:11:29;4.53;;;1.87;;
703;SDS011;335;48.694;9.120;2023-01-10T13:13:58;2.30;;;2.10;;
703;SDS011;335;48.694;9.120;2023-01-10T13:19:35;1.93;;;1.70;;
703;SDS011;335;48.694;9.120;2023-01-10T13:24:58;3.70;;;2.00;;
703;SDS011;335;48.694;9.120;2023-01-10T13:27:27;6.23;;;2.60;;
703;SDS011;335;48.694;9.120;2023-01-10T13:29:54;3.30;;;1.60;;
703;SDS011;335;48.694;9.120;2023-01-10T13:32:27;3.90;;;2.03;;
703;SDS011;335;48.694;9.120;2023-01-10T13:34:53;6.77;;;1.73;;
703;SDS011;335;48.694;9.120;2023-01-10T13:37:24;4.77;;;2.70;;
703;SDS011;335;48.694;9.120;2023-01-10T13:39:52;1.97;;;1.40;;
703;SDS011;335;48.694;9.120;2023-01-10T13:42:29;7.90;;;2.10;;
703;SDS011;335;48.694;9.120;2023-01-10T13:45:23;6.80;;;1.80;;
703;SDS011;335;48.694;9.120;2023-01-10T13:52:46;1.93;;;1.70;;
703;SDS011;335;48.694;9.120;2023-01-10T13:55:21;2.90;;;2.00;;
703;SDS011;335;48.694;9.120;2023-01-10T13:57:53;5.23;;;2.43;;
703;SDS011;335;48.694;9.120;2023-01-10T14:01:16;5.70;;;1.70;;
703;SDS011;335;48.694;9.120;2023-01-10T14:03:44;3.37;;;1.90;;
703;SDS011;335;48.694;9.120;2023-01-10T14:06:13;3.00;;;1.97;;
703;SDS011;335;48.694;9.120;2023-01-10T14:09:27;2.80;;;1.60;;
703;SDS011;335;48.694;9.120;2023-01-10T14:11:56;2.90;;;1.60;;
703;SDS011;335;48.694;9.120;2023-01-10T14:17:20;3.17;;;1.60;;
703;SDS011;335;48.694;9.120;2023-01-10T14:19:56;3.03;;;1.80;;
703;SDS011;335;48.694;9.120;2023-01-10T14:22:24;2.30;;;2.03;;
703;SDS011;335;48.694;9.120;2023-01-10T14:24:51;2.45;;;1.13;;
703;SDS011;335;48.694;9.120;2023-01-10T14:27:17;4.03;;;2.00;;
703;SDS011;335;48.694;9.120;2023-01-10T14:29:46;2.17;;;1.87;;
703;SDS011;335;48.694;9.120;2023-01-10T14:32:17;5.60;;;2.73;;
703;SDS011;335;48.694;9.120;2023-01-10T14:34:51;4.13;;;1.43;;
703;SDS011;335;48.694;9.120;2023-01-10T14:37:26;3.73;;;2.00;;
703;SDS011;335;48.694;9.120;2023-01-10T14:39:59;6.13;;;1.80;;
703;SDS011;335;48.694;9.120;2023-01-10T14:42:24;3.07;;;2.30;;
703;SDS011;335;48.694;9.120;2023-01-10T14:45:01;4.40;;;2.10;;
703;SDS011;335;48.694;9.120;2023-01-10T14:47:34;4.13;;;1.90;;
703;SDS011;335;48.694;9.120;2023-01-10T14:50:01;1.60;;;1.48;;
703;SDS011;335;48.694;9.120;2023-01-10T14:52:28;3.17;;;1.83;;
703;SDS011;335;48.694;9.120;2023-01-10T14:55:00;2.40;;;1.60;;
703;SDS011;335;48.694;9.120;2023-01-10T14:57:36;3.75;;;1.80;;
703;SDS011;335;48.694;9.120;2023-01-10T15:00:06;4.97;;;1.60;;
703;SDS011;335;48.694;9.120;2023-01-10T15:02:35;4.63;;;1.65;;
703;SDS011;335;48.694;9.120;2023-01-10T15:05:05;5.43;;;1.73;;
703;SDS011;335;48.694;9.120;2023-01-10T15:07:33;2.67;;;1.45;;
703;SDS011;335;48.694;9.120;2023-01-10T15:10:00;4.45;;;2.35;;
703;SDS011;335;48.694;9.120;2023-01-10T15:12:29;4.88;;;2.08;;
703;SDS011;335;48.694;9.120;2023-01-10T15:14:59;2.50;;;1.60;;
703;SDS011;335;48.694;9.120;2023-01-10T15:17:26;7.53;;;1.80;;
703;SDS011;335;48.694;9.120;2023-01-10T15:19:52;1.80;;;1.70;;
703;SDS011;335;48.694;9.120;2023-01-10T15:22:31;7.63;;;1.30;;
703;SDS011;335;48.694;9.120;2023-01-10T15:24:58;2.85;;;1.20;;
703;SDS011;335;48.694;9.120;2023-01-10T15:27:29;2.80;;;1.88;;
703;SDS011;335;48.694;9.120;2023-01-10T15:29:55;2.70;;;1.10;;
703;SDS011;335;48.694;9.120;2023-01-10T15:32:33;4.03;;;1.63;;
703;SDS011;335;48.694;9.120;2023-01-10T15:35:02;2.88;;;1.05;;
703;SDS011;335;48.694;9.120;2023-01-10T15:37:28;3.00;;;1.83;;
703;SDS011;335;48.694;9.120;2023-01-10T15:39:59;5.63;;;1.52;;
703;SDS011;335;48.694;9.120;2023-01-10T15:42:25;2.75;;;1.27;;
703;SDS011;335;48.694;9.120;2023-01-10T15:44:51;2.87;;;1.40;;
703;SDS011;335;48.694;9.120;2023-01-10T15:50:20;4.88;;;1.85;;
703;SDS011;335;48.694;9.120;2023-01-10T15:52:55;4.30;;;1.67;;
703;SDS011;335;48.694;9.120;2023-01-10T15:55:36;4.63;;;2.60;;
703;SDS011;335;48.694;9.120;2023-01-10T16:00:47;4.50;;;2.80;;
703;SDS011;335;48.694;9.120;2023-01-10T16:05:59;10.57;;;4.53;;
703;SDS011;335;48.694;9.120;2023-01-10T16:08:30;14.50;;;8.20;;
703;SDS011;335;48.694;9.120;2023-01-10T16:10:57;16.23;;;8.38;;
703;SDS011;335;48.694;9.120;2023-01-10T16:13:24;13.73;;;5.78;;
703;SDS011;335;48.694;9.120;2023-01-10T16:15:59;17.63;;;9.10;;
703;SDS011;335;48.694;9.120;2023-01-10T16:18:28;12.32;;;7.10;;
703;SDS011;335;48.694;9.120;2023-01-10T16:20:55;15.37;;;9.53;;
703;SDS011;335;48.694;9.120;2023-01-10T16:23:26;10.40;;;3.30;;
703;SDS011;335;48.694;9.120;2023-01-10T16:25:56;5.70;;;2.67;;
703;SDS011;335;48.694;9.120;2023-01-10T16:28:23;6.22;;;3.22;;
703;SDS011;335;48.694;9.120;2023-01-10T16:30:49;7.22;;;5.38;;
703;SDS011;335;48.694;9.120;2023-01-10T16:33:16;6.40;;;4.00;;
703;SDS011;335;48.694;9.120;2023-01-10T16:35:47;4.68;;;3.72;;
703;SDS011;335;48.694;9.120;2023-01-10T16:38:17;10.75;;;6.32;;
703;SDS011;335;48.694;9.120;2023-01-10T16:40:45;4.30;;;3.50;;
703;SDS011;335;48.694;9.120;2023-01-10T16:43:12;2.30;;;2.20;;
703;SDS011;335;48.694;9.120;2023-01-10T16:45:44;4.57;;;3.03;;
703;SDS011;335;48.694;9.120;2023-01-10T16:48:10;5.40;;;3.70;;
703;SDS011;335;48.694;9.120;2023-01-10T16:50:35;6.67;;;4.33;;
703;SDS011;335;48.694;9.120;2023-01-10T16:53:01;6.70;;;2.70;;
703;SDS011;335;48.694;9.120;2023-01-10T16:55:40;9.68;;;3.42;;
703;SDS011;335;48.694;9.120;2023-01-10T16:58:10;1.80;;;1.67;;
703;SDS011;335;48.694;9.120;2023-01-10T17:00:37;10.73;;;5.10;;
703;SDS011;335;48.694;9.120;2023-01-10T17:03:07;3.25;;;2.50;;
703;SDS011;335;48.694;9.120;2023-01-10T17:05:36;6.55;;;2.17;;
703;SDS011;335;48.694;9.120;2023-01-10T17:08:02;7.53;;;2.53;;
703;SDS011;335;48.694;9.120;2023-01-10T17:10:28;4.63;;;2.55;;
703;SDS011;335;48.694;9.120;2023-01-10T17:12:54;7.25;;;2.70;;
703;SDS011;335;48.694;9.120;2023-01-10T17:15:20;5.67;;;2.70;;
703;SDS011;335;48.694;9.120;2023-01-10T17:17:45;4.70;;;3.33;;
703;SDS011;335;48.694;9.120;2023-01-10T17:20:12;5.47;;;3.37;;
703;SDS011;335;48.694;9.120;2023-01-10T17:22:39;5.07;;;2.00;;
703;SDS011;335;48.694;9.120;2023-01-10T17:25:04;3.57;;;1.97;;
703;SDS011;335;48.694;9.120;2023-01-10T17:27:30;5.13;;;1.65;;
703;SDS011;335;48.694;9.120;2023-01-10T17:29:56;4.17;;;2.03;;
703;SDS011;335;48.694;9.120;2023-01-10T17:32:21;5.50;;;3.00;;
703;SDS011;335;48.694;9.120;2023-01-10T17:34:46;4.27;;;2.50;;